createdAt,value
2023-03-11T00:00:35.789Z,19.43
2023-03-11T00:03:05.210Z,19.43
2023-03-11T00:05:33.996Z,19.43
2023-03-11T00:08:01.026Z,19.44
2023-03-11T00:10:36.514Z,19.44
2023-03-11T00:13:03.556Z,19.43
2023-03-11T00:15:32.702Z,19.44
2023-03-11T00:18:02.952Z,19.44
2023-03-11T00:20:35.117Z,19.43
2023-03-11T00:23:02.134Z,19.43
2023-03-11T00:25:33.184Z,19.43
2023-03-11T00:28:00.090Z,19.43
2023-03-11T00:30:30.015Z,19.44
2023-03-11T00:32:57.852Z,19.43
2023-03-11T00:35:28.422Z,19.43
2023-03-11T00:37:58.937Z,19.42
2023-03-11T00:40:26.931Z,19.43
2023-03-11T00:42:57.778Z,19.43
2023-03-11T00:45:26.771Z,19.43
2023-03-11T00:47:54.816Z,19.43
2023-03-11T00:50:24.378Z,19.43
2023-03-11T00:52:51.036Z,19.43
2023-03-11T00:55:22.875Z,19.42
2023-03-11T00:57:54.920Z,19.41
2023-03-11T01:00:23.013Z,19.41
2023-03-11T01:02:53.545Z,19.41
2023-03-11T01:05:23.610Z,19.41
2023-03-11T01:07:55.041Z,19.42
2023-03-11T01:10:23.022Z,19.42
2023-03-11T01:12:52.536Z,19.42
2023-03-11T01:15:26.737Z,19.41
2023-03-11T01:17:53.487Z,19.40
2023-03-11T01:20:22.241Z,19.41
2023-03-11T01:22:49.345Z,19.40
2023-03-11T01:25:21.719Z,19.40
2023-03-11T01:27:50.749Z,19.41
2023-03-11T01:30:22.876Z,19.40
2023-03-11T01:32:53.503Z,19.41
2023-03-11T01:35:23.311Z,19.40
2023-03-11T01:37:53.035Z,19.40
2023-03-11T01:40:26.437Z,19.40
2023-03-11T01:42:54.251Z,19.39
2023-03-11T01:45:26.987Z,19.40
2023-03-11T01:47:58.341Z,19.41
2023-03-11T01:50:27.780Z,19.39
2023-03-11T01:52:54.534Z,19.41
2023-03-11T01:55:21.234Z,19.40
2023-03-11T01:57:48.043Z,19.39
2023-03-11T02:00:17.960Z,19.39
2023-03-11T02:02:52.444Z,19.40
2023-03-11T02:05:22.566Z,19.40
2023-03-11T02:07:49.386Z,19.40
2023-03-11T02:10:16.138Z,19.40
2023-03-11T02:12:43.551Z,19.37
2023-03-11T02:15:14.713Z,19.41
2023-03-11T02:17:41.500Z,19.39
2023-03-11T02:20:23.618Z,19.39
2023-03-11T02:22:50.387Z,19.39
2023-03-11T02:25:27.626Z,19.40
2023-03-11T02:27:56.504Z,19.39
2023-03-11T02:30:24.409Z,19.38
2023-03-11T02:32:51.658Z,19.39
2023-03-11T02:38:03.881Z,19.39
2023-03-11T02:40:44.030Z,19.38
2023-03-11T02:43:14.580Z,19.39
2023-03-11T02:45:42.490Z,19.40
2023-03-11T02:48:12.359Z,19.38
2023-03-11T02:50:39.046Z,19.38
2023-03-11T02:53:07.474Z,19.38
2023-03-11T02:55:34.218Z,19.39
2023-03-11T02:58:02.443Z,19.39
2023-03-11T03:00:31.300Z,19.38
2023-03-11T03:03:00.314Z,19.38
2023-03-11T03:05:27.314Z,19.37
2023-03-11T03:07:54.000Z,19.37
2023-03-11T03:10:21.108Z,19.37
2023-03-11T03:12:47.824Z,19.38
2023-03-11T03:15:16.069Z,19.38
2023-03-11T03:17:42.896Z,19.38
2023-03-11T03:20:11.700Z,19.38
2023-03-11T03:22:40.636Z,19.37
2023-03-11T03:25:07.976Z,19.36
2023-03-11T03:27:34.751Z,19.37
2023-03-11T03:30:04.479Z,19.37
2023-03-11T03:32:36.026Z,19.36
2023-03-11T03:35:05.959Z,19.37
2023-03-11T03:37:39.209Z,19.37
2023-03-11T03:40:09.917Z,19.37
2023-03-11T03:42:38.494Z,19.37
2023-03-11T03:45:06.368Z,19.36
2023-03-11T03:47:35.920Z,19.37
2023-03-11T03:50:08.103Z,19.36
2023-03-11T03:52:37.807Z,19.36
2023-03-11T03:55:05.346Z,19.37
2023-03-11T03:57:33.276Z,19.36
2023-03-11T04:00:04.431Z,19.36
2023-03-11T04:02:32.101Z,19.37
2023-03-11T04:04:58.828Z,19.36
2023-03-11T04:07:25.461Z,19.36
2023-03-11T04:09:58.245Z,19.36
2023-03-11T04:12:25.008Z,19.35
2023-03-11T04:14:56.394Z,19.35
2023-03-11T04:17:25.362Z,19.35
2023-03-11T04:19:52.152Z,19.35
2023-03-11T04:22:18.894Z,19.34
2023-03-11T04:24:46.468Z,19.34
2023-03-11T04:27:13.129Z,19.36
2023-03-11T04:29:39.863Z,19.35
2023-03-11T04:32:06.912Z,19.34
2023-03-11T04:34:37.741Z,19.34
2023-03-11T04:37:04.437Z,19.33
2023-03-11T04:39:33.337Z,19.35
2023-03-11T04:42:02.287Z,19.36
2023-03-11T04:44:30.295Z,19.34
2023-03-11T04:46:57.070Z,19.34
2023-03-11T04:49:28.490Z,19.34
2023-03-11T04:51:55.236Z,19.34
2023-03-11T04:54:24.224Z,19.35
2023-03-11T04:56:55.573Z,19.34
2023-03-11T04:59:22.206Z,19.34
2023-03-11T05:01:53.892Z,19.34
2023-03-11T05:04:25.475Z,19.34
2023-03-11T05:06:54.437Z,19.34
2023-03-11T05:09:21.735Z,19.34
2023-03-11T05:11:49.491Z,19.33
2023-03-11T05:14:16.228Z,19.33
2023-03-11T05:16:45.107Z,19.34
2023-03-11T05:19:34.583Z,19.33
2023-03-11T05:22:05.655Z,19.33
2023-03-11T05:24:35.452Z,19.34
2023-03-11T05:27:07.328Z,19.34
2023-03-11T05:29:33.970Z,19.33
2023-03-11T05:32:00.738Z,19.34
2023-03-11T05:34:29.682Z,19.33
2023-03-11T05:36:59.129Z,19.34
2023-03-11T05:39:26.805Z,19.33
2023-03-11T05:41:56.924Z,19.34
2023-03-11T05:44:26.678Z,19.34
2023-03-11T05:46:53.513Z,19.33
2023-03-11T05:49:24.932Z,19.34
2023-03-11T05:51:55.660Z,19.34
2023-03-11T05:54:23.411Z,19.34
2023-03-11T05:56:52.484Z,19.34
2023-03-11T05:59:21.229Z,19.33
2023-03-11T06:01:48.869Z,19.34
2023-03-11T06:04:18.047Z,19.33
2023-03-11T06:06:44.870Z,19.33
2023-03-11T06:09:12.977Z,19.32
2023-03-11T06:11:40.704Z,19.33
2023-03-11T06:14:12.060Z,19.31
2023-03-11T06:16:39.577Z,19.32
2023-03-11T06:19:08.529Z,19.34
2023-03-11T06:21:40.122Z,19.34
2023-03-11T06:24:07.202Z,19.33
2023-03-11T06:26:37.005Z,19.33
2023-03-11T06:29:09.263Z,19.34
2023-03-11T06:31:37.285Z,19.33
2023-03-11T06:34:06.424Z,19.32
2023-03-11T06:36:39.067Z,19.32
2023-03-11T06:39:05.898Z,19.33
2023-03-11T06:41:38.072Z,19.34
2023-03-11T06:44:07.041Z,19.34
2023-03-11T06:46:33.722Z,19.32
2023-03-11T06:49:00.447Z,19.33
2023-03-11T06:51:27.324Z,19.33
2023-03-11T06:53:57.248Z,19.33
2023-03-11T06:56:25.320Z,19.34
2023-03-11T06:58:53.353Z,19.34
2023-03-11T07:01:27.350Z,19.34
2023-03-11T07:03:56.845Z,19.32
2023-03-11T07:06:29.886Z,19.35
2023-03-11T07:08:59.226Z,19.34
2023-03-11T07:11:27.532Z,19.35
2023-03-11T07:13:55.911Z,19.36
2023-03-11T07:16:27.892Z,19.36
2023-03-11T07:19:02.901Z,19.34
2023-03-11T07:21:30.165Z,19.35
2023-03-11T07:23:59.196Z,19.35
2023-03-11T07:26:28.677Z,19.36
2023-03-11T07:28:55.834Z,19.35
2023-03-11T07:31:27.507Z,19.36
2023-03-11T07:33:55.377Z,19.36
2023-03-11T07:36:26.180Z,19.36
2023-03-11T07:39:01.146Z,19.37
2023-03-11T07:41:33.363Z,19.37
2023-03-11T07:44:00.607Z,19.38
2023-03-11T07:46:28.106Z,19.41
2023-03-11T07:48:57.654Z,19.44
2023-03-11T07:51:28.605Z,19.45
2023-03-11T07:53:59.088Z,19.47
2023-03-11T07:56:26.970Z,19.49
2023-03-11T07:58:53.934Z,19.52
2023-03-11T08:01:24.940Z,19.51
2023-03-11T08:03:56.985Z,19.54
2023-03-11T08:06:25.599Z,19.54
2023-03-11T08:08:52.428Z,19.57
2023-03-11T08:11:19.484Z,19.59
2023-03-11T08:13:49.833Z,19.60
2023-03-11T08:16:19.823Z,19.59
2023-03-11T08:18:47.629Z,19.60
2023-03-11T08:21:16.409Z,19.62
2023-03-11T08:23:44.096Z,19.63
2023-03-11T08:26:12.088Z,19.65
2023-03-11T08:28:39.330Z,19.66
2023-03-11T08:31:19.336Z,19.69
2023-03-11T08:33:50.019Z,19.70
2023-03-11T08:36:17.306Z,19.72
2023-03-11T08:38:46.713Z,19.74
2023-03-11T08:41:16.269Z,19.75
2023-03-11T08:43:45.109Z,19.76
2023-03-11T08:46:47.850Z,19.79
2023-03-11T08:49:16.904Z,19.82
2023-03-11T08:51:43.714Z,19.83
2023-03-11T08:54:12.912Z,19.84
2023-03-11T08:56:39.689Z,19.85
2023-03-11T08:59:08.539Z,19.87
2023-03-11T09:01:37.543Z,19.88
2023-03-11T09:04:04.560Z,19.89
2023-03-11T09:06:33.427Z,19.91
2023-03-11T09:09:03.096Z,19.93
2023-03-11T09:11:31.896Z,19.95
2023-03-11T09:13:58.611Z,19.94
2023-03-11T09:16:28.094Z,19.97
2023-03-11T09:18:54.839Z,19.94
2023-03-11T09:21:24.046Z,19.95
2023-03-11T09:23:52.929Z,19.98
2023-03-11T09:26:19.681Z,20.00
2023-03-11T09:28:49.388Z,20.00
2023-03-11T09:31:18.645Z,20.01
2023-03-11T09:33:46.141Z,20.01
2023-03-11T09:36:17.860Z,20.02
2023-03-11T09:38:44.627Z,20.02
2023-03-11T09:41:17.558Z,20.02
2023-03-11T09:43:56.391Z,20.04
2023-03-11T09:46:45.698Z,20.06
2023-03-11T09:49:19.962Z,20.06
2023-03-11T09:51:49.638Z,20.07
2023-03-11T09:54:18.489Z,20.08
2023-03-11T09:56:47.412Z,20.11
2023-03-11T09:59:29.261Z,20.12
2023-03-11T10:01:58.209Z,20.11
2023-03-11T10:04:40.154Z,20.10
2023-03-11T10:07:12.652Z,20.12
2023-03-11T10:09:46.091Z,20.14
2023-03-11T10:12:46.880Z,20.14
2023-03-11T10:15:16.604Z,20.12
2023-03-11T10:18:18.596Z,20.14
2023-03-11T10:21:01.011Z,20.14
2023-03-11T10:23:46.348Z,20.14
2023-03-11T10:26:38.945Z,20.14
2023-03-11T10:29:24.881Z,20.12
2023-03-11T10:32:13.481Z,20.12
2023-03-11T10:34:45.016Z,20.11
2023-03-11T10:37:26.289Z,20.11
2023-03-11T10:39:55.588Z,20.14
2023-03-11T10:42:26.070Z,20.13
2023-03-11T10:44:55.019Z,20.08
2023-03-11T10:47:25.634Z,20.10
2023-03-11T10:49:55.056Z,20.08
2023-03-11T10:52:21.759Z,20.08
2023-03-11T10:54:49.324Z,20.08
2023-03-11T10:57:25.637Z,20.08
2023-03-11T10:59:53.672Z,20.09
2023-03-11T11:02:26.944Z,20.08
2023-03-11T11:05:21.735Z,20.08
2023-03-11T11:07:54.745Z,20.08
2023-03-11T11:10:25.072Z,20.07
2023-03-11T11:13:13.553Z,20.06
2023-03-11T11:16:04.639Z,20.04
2023-03-11T11:18:47.638Z,20.01
2023-03-11T11:21:16.617Z,20.01
2023-03-11T11:24:01.035Z,20.01
2023-03-11T11:26:27.724Z,20.02
2023-03-11T11:29:10.388Z,20.01
2023-03-11T11:31:41.183Z,20.00
2023-03-11T11:34:27.132Z,20.02
2023-03-11T11:36:57.217Z,20.01
2023-03-11T11:39:24.581Z,20.01
2023-03-11T11:41:53.352Z,20.01
2023-03-11T11:44:23.143Z,19.99
2023-03-11T11:46:55.826Z,19.99
2023-03-11T11:49:31.778Z,19.98
2023-03-11T11:52:26.044Z,19.97
2023-03-11T11:55:04.902Z,19.97
2023-03-11T11:57:34.751Z,19.97
2023-03-11T12:00:05.945Z,19.99
2023-03-11T12:02:45.947Z,20.00
2023-03-11T12:05:19.811Z,20.00
2023-03-11T12:07:49.153Z,19.99
2023-03-11T12:10:40.876Z,19.98
2023-03-11T12:13:29.238Z,19.98
2023-03-11T12:16:04.693Z,19.98
2023-03-11T12:18:44.938Z,19.98
2023-03-11T12:21:17.214Z,19.98
2023-03-11T12:24:00.715Z,19.98
2023-03-11T12:26:28.331Z,19.99
2023-03-11T12:29:05.047Z,19.98
2023-03-11T12:31:35.309Z,19.97
2023-03-11T12:34:03.289Z,19.95
2023-03-11T12:36:32.261Z,19.98
2023-03-11T12:39:02.159Z,19.99
2023-03-11T12:41:31.729Z,19.98
2023-03-11T12:44:00.530Z,19.98
2023-03-11T12:46:58.956Z,19.97
2023-03-11T12:49:26.307Z,19.97
2023-03-11T12:52:11.492Z,19.98
2023-03-11T12:54:46.142Z,19.98
2023-03-11T12:57:19.098Z,19.98
2023-03-11T12:59:45.667Z,19.98
2023-03-11T13:02:44.675Z,19.98
2023-03-11T13:05:41.647Z,19.97
2023-03-11T13:08:12.545Z,19.98
2023-03-11T13:10:42.546Z,19.97
2023-03-11T13:13:35.227Z,19.98
2023-03-11T13:16:17.629Z,19.97
2023-03-11T13:18:48.106Z,19.96
2023-03-11T13:21:32.849Z,19.95
2023-03-11T13:24:38.038Z,19.95
2023-03-11T13:27:10.804Z,19.95
2023-03-11T13:29:47.835Z,19.95
2023-03-11T13:32:20.367Z,19.95
2023-03-11T13:34:59.030Z,19.96
2023-03-11T13:37:25.615Z,19.96
2023-03-11T13:40:14.158Z,19.95
2023-03-11T13:42:44.808Z,19.95
2023-03-11T13:45:26.600Z,19.94
2023-03-11T13:47:57.050Z,19.94
2023-03-11T13:50:32.333Z,19.94
2023-03-11T13:52:59.736Z,19.96
2023-03-11T13:55:40.441Z,19.94
2023-03-11T13:58:19.434Z,19.93
2023-03-11T14:00:53.561Z,19.95
2023-03-11T14:03:22.266Z,19.93
2023-03-11T14:06:08.888Z,19.94
2023-03-11T14:08:36.634Z,19.94
2023-03-11T14:11:24.374Z,19.92
2023-03-11T14:13:51.406Z,19.95
2023-03-11T14:16:30.643Z,19.92
2023-03-11T14:19:16.425Z,19.93
2023-03-11T14:21:43.632Z,19.93
2023-03-11T14:24:19.569Z,19.90
2023-03-11T14:26:48.028Z,19.93
2023-03-11T14:29:21.483Z,19.93
2023-03-11T14:31:48.318Z,19.92
2023-03-11T14:34:22.878Z,19.92
2023-03-11T14:36:59.435Z,19.92
2023-03-11T14:39:33.016Z,19.92
2023-03-11T14:42:19.091Z,19.92
2023-03-11T14:45:15.478Z,19.91
2023-03-11T14:47:46.495Z,19.89
2023-03-11T14:50:19.416Z,19.90
2023-03-11T14:53:07.596Z,19.90
2023-03-11T14:55:40.567Z,19.89
2023-03-11T14:58:24.604Z,19.88
2023-03-11T15:01:00.383Z,19.88
2023-03-11T15:03:33.515Z,19.90
2023-03-11T15:06:07.460Z,19.88
2023-03-11T15:08:56.521Z,19.86
2023-03-11T15:11:25.317Z,19.88
2023-03-11T15:13:52.566Z,19.87
2023-03-11T15:16:36.035Z,19.87
2023-03-11T15:19:30.113Z,19.87
2023-03-11T15:22:23.714Z,19.88
2023-03-11T15:24:57.450Z,19.86
2023-03-11T15:27:29.205Z,19.86
2023-03-11T15:29:55.945Z,19.86
2023-03-11T15:32:32.027Z,19.86
2023-03-11T15:35:22.823Z,19.86
2023-03-11T15:38:12.101Z,19.86
2023-03-11T15:40:45.713Z,19.85
2023-03-11T15:43:20.710Z,19.87
2023-03-11T15:45:49.056Z,19.85
2023-03-11T15:48:17.344Z,19.85
2023-03-11T15:51:04.264Z,19.86
2023-03-11T15:53:32.441Z,19.86
2023-03-11T15:56:07.255Z,19.85
2023-03-11T15:58:38.960Z,19.86
2023-03-11T16:01:08.516Z,19.84
2023-03-11T16:03:35.308Z,19.85
2023-03-11T16:06:06.608Z,19.84
2023-03-11T16:08:34.659Z,19.85
2023-03-11T16:11:06.734Z,19.85
2023-03-11T16:13:35.667Z,19.85
2023-03-11T16:16:04.917Z,19.85
2023-03-11T16:18:35.838Z,19.85
2023-03-11T16:21:04.786Z,19.83
2023-03-11T16:23:48.587Z,19.84
2023-03-11T16:26:17.299Z,19.84
2023-03-11T16:28:44.001Z,19.84
2023-03-11T16:31:10.852Z,19.85
2023-03-11T16:33:37.672Z,19.83
2023-03-11T16:36:04.707Z,19.83
2023-03-11T16:38:31.640Z,19.84
2023-03-11T16:41:04.171Z,19.83
2023-03-11T16:43:33.169Z,19.83
2023-03-11T16:46:02.986Z,19.82
2023-03-11T16:48:34.908Z,19.83
2023-03-11T16:51:04.237Z,19.82
2023-03-11T16:53:31.004Z,19.83
2023-03-11T16:55:59.931Z,19.81
2023-03-11T16:58:26.539Z,19.82
2023-03-11T17:00:53.277Z,19.81
2023-03-11T17:03:21.884Z,19.81
2023-03-11T17:05:51.701Z,19.82
2023-03-11T17:08:20.644Z,19.81
2023-03-11T17:10:50.880Z,19.80
2023-03-11T17:13:22.180Z,19.81
2023-03-11T17:16:01.600Z,19.79
2023-03-11T17:18:28.379Z,19.79
2023-03-11T17:20:57.390Z,19.79
2023-03-11T17:23:26.352Z,19.79
2023-03-11T17:25:53.360Z,19.78
2023-03-11T17:28:20.230Z,19.77
2023-03-11T17:30:46.952Z,19.77
2023-03-11T17:33:15.764Z,19.78
2023-03-11T17:35:42.542Z,19.75
2023-03-11T17:38:12.577Z,19.76
2023-03-11T17:40:42.419Z,19.76
2023-03-11T17:43:09.121Z,19.75
2023-03-11T17:45:37.614Z,19.74
2023-03-11T17:48:05.429Z,19.75
2023-03-11T17:50:36.273Z,19.74
2023-03-11T17:53:05.898Z,19.74
2023-03-11T17:55:38.697Z,19.74
2023-03-11T17:58:05.339Z,19.73
2023-03-11T18:00:35.208Z,19.73
2023-03-11T18:03:02.052Z,19.74
2023-03-11T18:05:30.924Z,19.73
2023-03-11T18:07:59.881Z,19.72
2023-03-11T18:10:26.565Z,19.71
2023-03-11T18:12:56.339Z,19.72
2023-03-11T18:15:25.843Z,19.71
2023-03-11T18:17:52.627Z,19.71
2023-03-11T18:20:19.446Z,19.70
2023-03-11T18:22:46.862Z,19.70
2023-03-11T18:25:14.005Z,19.70
2023-03-11T18:27:40.984Z,19.69
2023-03-11T18:30:08.459Z,19.70
2023-03-11T18:32:37.667Z,19.68
2023-03-11T18:35:04.664Z,19.68
2023-03-11T18:37:35.708Z,19.67
2023-03-11T18:40:05.866Z,19.68
2023-03-11T18:42:35.378Z,19.67
2023-03-11T18:45:02.116Z,19.65
2023-03-11T18:47:28.870Z,19.66
2023-03-11T18:49:55.530Z,19.66
2023-03-11T18:52:22.665Z,19.66
2023-03-11T18:54:49.375Z,19.66
2023-03-11T18:57:18.272Z,19.66
2023-03-11T18:59:44.956Z,19.65
2023-03-11T19:02:13.929Z,19.64
2023-03-11T19:04:43.805Z,19.64
2023-03-11T19:07:10.508Z,19.64
2023-03-11T19:09:37.140Z,19.66
2023-03-11T19:12:06.991Z,19.64
2023-03-11T19:14:33.763Z,19.64
2023-03-11T19:17:02.724Z,19.62
2023-03-11T19:19:34.026Z,19.63
2023-03-11T19:22:00.879Z,19.61
2023-03-11T19:24:29.857Z,19.61
2023-03-11T19:27:04.353Z,19.61
2023-03-11T19:29:31.046Z,19.61
2023-03-11T19:32:01.709Z,19.60
2023-03-11T19:34:32.550Z,19.61
2023-03-11T19:37:01.435Z,19.61
2023-03-11T19:39:28.076Z,19.60
2023-03-11T19:41:55.558Z,19.59
2023-03-11T19:44:24.475Z,19.59
2023-03-11T19:46:53.293Z,19.58
2023-03-11T19:49:22.139Z,19.58
2023-03-11T19:51:50.603Z,19.58
2023-03-11T19:54:20.108Z,19.57
2023-03-11T19:56:48.973Z,19.57
2023-03-11T19:59:17.894Z,19.56
2023-03-11T20:01:46.188Z,19.57
2023-03-11T20:04:15.281Z,19.56
2023-03-11T20:06:42.167Z,19.57
2023-03-11T20:09:12.220Z,19.56
2023-03-11T20:11:46.385Z,19.56
2023-03-11T20:14:14.513Z,19.54
2023-03-11T20:16:41.489Z,19.55
2023-03-11T20:19:08.446Z,19.54
2023-03-11T20:21:39.348Z,19.54
2023-03-11T20:24:08.971Z,19.52
2023-03-11T20:26:37.638Z,19.54
2023-03-11T20:29:04.473Z,19.52
2023-03-11T20:31:31.716Z,19.52
2023-03-11T20:34:01.858Z,19.51
2023-03-11T20:36:33.232Z,19.51
2023-03-11T20:39:01.049Z,19.51
2023-03-11T20:41:28.206Z,19.51
2023-03-11T20:43:59.136Z,19.51
2023-03-11T20:46:28.232Z,19.51
2023-03-11T20:48:56.396Z,19.50
2023-03-11T20:51:26.181Z,19.50
2023-03-11T20:53:57.284Z,19.49
2023-03-11T20:56:26.041Z,19.47
2023-03-11T20:58:56.588Z,19.47
2023-03-11T21:01:28.690Z,19.47
2023-03-11T21:04:00.783Z,19.48
2023-03-11T21:06:42.487Z,19.46
2023-03-11T21:09:13.523Z,19.46
2023-03-11T21:11:40.412Z,19.45
2023-03-11T21:14:09.715Z,19.45
2023-03-11T21:16:39.160Z,19.44
2023-03-11T21:19:13.106Z,19.45
2023-03-11T21:21:40.407Z,19.42
2023-03-11T21:24:07.420Z,19.44
2023-03-11T21:26:36.480Z,19.43
2023-03-11T21:29:03.323Z,19.42
2023-03-11T21:31:32.744Z,19.42
2023-03-11T21:33:59.988Z,19.42
2023-03-11T21:36:28.072Z,19.42
2023-03-11T21:38:56.144Z,19.40
2023-03-11T21:41:25.131Z,19.40
2023-03-11T21:43:57.654Z,19.40
2023-03-11T21:46:31.246Z,19.39
2023-03-11T21:49:01.213Z,19.38
2023-03-11T21:51:35.579Z,19.38
2023-03-11T21:54:06.013Z,19.38
2023-03-11T21:56:32.799Z,19.38
2023-03-11T21:58:59.573Z,19.36
2023-03-11T22:01:26.450Z,19.37
2023-03-11T22:03:55.239Z,19.36
2023-03-11T22:06:23.480Z,19.36
2023-03-11T22:08:50.339Z,19.35
2023-03-11T22:11:21.954Z,19.35
2023-03-11T22:13:51.257Z,19.35
2023-03-11T22:16:21.008Z,19.33
2023-03-11T22:18:48.993Z,19.34
2023-03-11T22:21:18.671Z,19.34
2023-03-11T22:23:46.364Z,19.34
2023-03-11T22:26:15.921Z,19.33
2023-03-11T22:28:45.032Z,19.33
2023-03-11T22:31:13.277Z,19.33
2023-03-11T22:33:44.179Z,19.33
2023-03-11T22:36:13.104Z,19.33
2023-03-11T22:38:42.303Z,19.30
2023-03-11T22:41:09.085Z,19.31
2023-03-11T22:43:38.569Z,19.31
2023-03-11T22:46:07.826Z,19.30
2023-03-11T22:48:37.441Z,19.30
2023-03-11T22:51:05.583Z,19.30
2023-03-11T22:53:37.047Z,19.29
2023-03-11T22:56:12.081Z,19.28
2023-03-11T22:58:39.044Z,19.28
2023-03-11T23:01:08.442Z,19.28
2023-03-11T23:03:37.900Z,19.27
2023-03-11T23:06:09.061Z,19.27
2023-03-11T23:08:35.898Z,19.26
2023-03-11T23:11:08.440Z,19.26
2023-03-11T23:13:36.882Z,19.26
2023-03-11T23:16:13.714Z,19.26
2023-03-11T23:18:44.526Z,19.24
2023-03-11T23:21:32.938Z,19.23
2023-03-11T23:24:00.773Z,19.24
2023-03-11T23:26:30.239Z,19.23
2023-03-11T23:28:58.581Z,19.22
2023-03-11T23:31:29.099Z,19.22
2023-03-11T23:33:55.970Z,19.19
2023-03-11T23:36:23.570Z,19.20
2023-03-11T23:38:50.984Z,19.19
2023-03-11T23:41:23.774Z,19.19
2023-03-11T23:43:51.359Z,19.18
2023-03-11T23:46:21.183Z,19.18
2023-03-11T23:48:50.162Z,19.16
2023-03-11T23:51:16.820Z,19.18
2023-03-11T23:53:44.749Z,19.15
2023-03-11T23:56:15.959Z,19.15
2023-03-11T23:58:42.651Z,19.16
